createdAt,value
2022-09-12T00:00:17.751Z,100053.25
2022-09-12T00:02:46.329Z,100043.84
2022-09-12T00:05:16.418Z,100042.06
2022-09-12T00:07:45.709Z,100045.50
2022-09-12T00:10:15.918Z,100042.06
2022-09-12T00:12:46.059Z,100037.88
2022-09-12T00:15:15.598Z,100042.06
2022-09-12T00:17:44.969Z,100043.00
2022-09-12T00:20:13.909Z,100040.28
2022-09-12T00:22:45.589Z,100036.81
2022-09-12T00:25:14.069Z,100041.09
2022-09-12T00:27:42.598Z,100036.81
2022-09-12T00:30:13.410Z,100032.63
2022-09-12T00:32:43.179Z,100034.44
2022-09-12T00:35:11.750Z,100036.81
2022-09-12T00:37:40.258Z,100035.97
2022-09-12T00:40:11.198Z,100035.34
2022-09-12T00:42:39.728Z,100034.44
2022-09-12T00:45:20.750Z,100041.22
2022-09-12T00:47:49.749Z,100048.25
2022-09-12T00:50:19.288Z,100045.75
2022-09-12T00:52:52.493Z,100045.75
2022-09-12T00:55:26.029Z,100045.75
2022-09-12T00:57:58.330Z,100044.91
2022-09-12T01:00:29.168Z,100043.13
2022-09-12T01:03:02.008Z,100038.84
2022-09-12T01:05:33.209Z,100038.84
2022-09-12T01:08:03.965Z,100042.28
2022-09-12T01:10:37.178Z,100043.97
2022-09-12T01:13:07.578Z,100043.00
2022-09-12T01:15:38.468Z,100045.75
2022-09-12T01:18:18.159Z,100043.97
2022-09-12T01:21:01.618Z,100041.34
2022-09-12T01:24:02.369Z,100042.28
2022-09-12T01:26:58.458Z,100042.41
2022-09-12T01:29:52.139Z,100037.16
2022-09-12T01:32:30.248Z,100036.44
2022-09-12T01:35:07.390Z,100043.59
2022-09-12T01:37:43.338Z,100042.63
2022-09-12T01:40:17.503Z,100033.81
2022-09-12T01:42:56.419Z,100034.88
2022-09-12T01:45:31.888Z,100037.38
2022-09-12T01:48:10.159Z,100035.72
2022-09-12T01:50:52.059Z,100032.28
2022-09-12T01:53:25.279Z,100028.00
2022-09-12T01:55:59.038Z,100035.72
2022-09-12T01:58:31.790Z,100034.06
2022-09-12T02:01:08.070Z,100037.50
2022-09-12T02:03:45.219Z,100033.22
2022-09-12T02:06:20.450Z,100033.09
2022-09-12T02:08:53.558Z,100031.44
2022-09-12T02:11:22.918Z,100028.00
2022-09-12T02:13:57.509Z,100025.38
2022-09-12T02:16:33.557Z,100018.44
2022-09-12T02:19:11.068Z,100015.09
2022-09-12T02:21:45.099Z,100014.13
2022-09-12T02:24:16.168Z,100014.97
2022-09-12T02:26:51.248Z,100014.97
2022-09-12T02:29:19.889Z,100011.53
2022-09-12T02:31:51.031Z,100014.97
2022-09-12T02:34:34.599Z,100010.69
2022-09-12T02:37:10.458Z,100008.06
2022-09-12T02:39:43.248Z,100017.59
2022-09-12T02:42:14.409Z,100015.81
2022-09-12T02:44:43.388Z,100016.75
2022-09-12T02:47:17.590Z,100018.56
2022-09-12T02:49:48.619Z,100011.63
2022-09-12T02:52:17.150Z,100014.25
2022-09-12T02:54:46.569Z,100016.88
2022-09-12T02:57:22.648Z,100010.78
2022-09-12T02:59:53.563Z,100016.03
2022-09-12T03:02:39.291Z,100014.38
2022-09-12T03:05:20.313Z,100011.03
2022-09-12T03:08:11.718Z,100017.97
2022-09-12T03:10:53.549Z,100017.00
2022-09-12T03:13:27.898Z,100016.16
2022-09-12T03:16:08.970Z,100004.94
2022-09-12T03:18:50.519Z,100014.38
2022-09-12T03:21:27.638Z,100010.09
2022-09-12T03:24:10.679Z,99997.09
2022-09-12T03:26:45.595Z,100001.50
2022-09-12T03:29:16.439Z,99997.09
2022-09-12T03:31:52.738Z,99988.38
2022-09-12T03:34:21.729Z,99979.69
2022-09-12T03:36:52.479Z,99980.63
2022-09-12T03:39:21.240Z,99987.56
2022-09-12T03:41:49.659Z,99999.09
2022-09-12T03:44:18.232Z,99990.41
2022-09-12T03:46:47.520Z,99984.22
2022-09-12T03:49:16.390Z,99979.78
2022-09-12T03:51:45.269Z,99985.03
2022-09-12T03:54:15.219Z,99981.59
2022-09-12T03:56:43.779Z,99983.38
2022-09-12T03:59:12.139Z,99972.06
2022-09-12T04:01:41.868Z,99980.84
2022-09-12T04:04:11.330Z,99986.09
2022-09-12T04:06:39.729Z,99987.06
2022-09-12T04:09:08.149Z,99992.31
2022-09-12T04:11:37.980Z,99995.75
2022-09-12T04:14:06.449Z,99996.72
2022-09-12T04:16:34.920Z,99999.34
2022-09-12T04:19:03.439Z,100001.00
2022-09-12T04:21:32.298Z,100005.41
2022-09-12T04:24:00.699Z,100012.31
2022-09-12T04:26:30.068Z,100004.59
2022-09-12T04:29:00.139Z,100006.47
2022-09-12T04:31:28.848Z,100003.97
2022-09-12T04:33:58.599Z,99999.56
2022-09-12T04:36:27.870Z,100004.81
2022-09-12T04:38:56.824Z,100009.09
2022-09-12T04:41:27.199Z,100012.69
2022-09-12T04:43:58.999Z,100010.88
2022-09-12T04:46:29.950Z,100012.69
2022-09-12T04:48:58.449Z,100008.25
2022-09-12T04:51:29.079Z,100009.22
2022-09-12T04:54:00.060Z,100004.09
2022-09-12T04:56:30.088Z,100008.41
2022-09-12T04:58:59.758Z,100013.63
2022-09-12T05:01:31.144Z,100004.09
2022-09-12T05:04:00.242Z,100013.63
2022-09-12T05:06:30.329Z,100010.28
2022-09-12T05:08:59.129Z,100010.28
2022-09-12T05:11:46.689Z,100006.69
2022-09-12T05:14:18.330Z,100011.13
2022-09-12T05:16:49.560Z,100011.25
2022-09-12T05:19:18.671Z,100007.78
2022-09-12T05:21:47.132Z,100003.38
2022-09-12T05:24:15.559Z,100008.63
2022-09-12T05:26:44.129Z,100013.03
2022-09-12T05:29:13.371Z,100018.16
2022-09-12T05:31:41.821Z,100026.84
2022-09-12T05:34:12.917Z,100035.66
2022-09-12T05:36:41.419Z,100038.38
2022-09-12T05:39:09.868Z,100043.63
2022-09-12T05:41:38.470Z,100046.25
2022-09-12T05:44:09.069Z,100047.22
2022-09-12T05:46:39.308Z,100046.25
2022-09-12T05:49:11.593Z,100046.38
2022-09-12T05:51:41.643Z,100048.28
2022-09-12T05:54:13.540Z,100039.47
2022-09-12T05:56:43.589Z,100036.97
2022-09-12T05:59:14.681Z,100036.00
2022-09-12T06:01:43.639Z,100034.47
2022-09-12T06:04:13.986Z,100036.13
2022-09-12T06:06:45.477Z,100036.00
2022-09-12T06:09:16.339Z,100030.75
2022-09-12T06:11:45.440Z,100024.59
2022-09-12T06:14:16.283Z,100028.13
2022-09-12T06:16:45.084Z,100028.13
2022-09-12T06:19:20.729Z,100033.38
2022-09-12T06:21:49.920Z,100029.00
2022-09-12T06:24:18.979Z,100029.00
2022-09-12T06:26:47.654Z,100029.09
2022-09-12T06:29:16.850Z,100031.63
2022-09-12T06:31:46.039Z,100036.84
2022-09-12T06:34:17.398Z,100033.38
2022-09-12T06:36:47.620Z,100044.72
2022-09-12T06:39:18.378Z,100043.63
2022-09-12T06:41:47.378Z,100035.91
2022-09-12T06:44:17.568Z,100032.31
2022-09-12T06:46:46.104Z,100035.53
2022-09-12T06:49:17.783Z,100033.88
2022-09-12T06:51:46.540Z,100028.78
2022-09-12T06:54:17.174Z,100028.78
2022-09-12T06:56:46.093Z,100034.94
2022-09-12T06:59:14.569Z,100040.09
2022-09-12T07:01:43.365Z,100046.75
2022-09-12T07:04:12.078Z,100039.84
2022-09-12T07:06:44.818Z,100049.50
2022-09-12T07:09:16.566Z,100053.19
2022-09-12T07:11:45.968Z,100057.47
2022-09-12T07:14:15.709Z,100065.34
2022-09-12T07:16:44.362Z,100069.63
2022-09-12T07:19:13.170Z,100068.78
2022-09-12T07:21:43.289Z,100066.31
2022-09-12T07:24:12.614Z,100076.56
2022-09-12T07:26:42.350Z,100078.22
2022-09-12T07:29:35.758Z,100084.28
2022-09-12T07:32:06.104Z,100074.63
2022-09-12T07:34:35.131Z,100075.47
2022-09-12T07:37:06.119Z,100075.47
2022-09-12T07:39:34.650Z,100078.09
2022-09-12T07:42:03.050Z,100071.09
2022-09-12T07:44:31.608Z,100077.16
2022-09-12T07:47:00.198Z,100070.13
2022-09-12T07:49:29.040Z,100068.34
2022-09-12T07:51:58.019Z,100072.53
2022-09-12T07:54:27.949Z,100067.16
2022-09-12T07:56:56.499Z,100077.63
2022-09-12T07:59:41.867Z,100070.63
2022-09-12T08:02:17.560Z,100078.50
2022-09-12T08:04:46.649Z,100073.94
2022-09-12T08:07:15.131Z,100077.31
2022-09-12T08:09:44.988Z,100075.66
2022-09-12T08:12:13.428Z,100070.50
2022-09-12T08:14:41.909Z,100069.66
2022-09-12T08:17:10.459Z,100062.63
2022-09-12T08:19:39.620Z,100060.63
2022-09-12T08:22:08.459Z,100057.16
2022-09-12T08:24:36.878Z,100061.34
2022-09-12T08:27:06.989Z,100065.53
2022-09-12T08:29:35.509Z,100068.16
2022-09-12T08:32:04.908Z,100078.66
2022-09-12T08:34:33.451Z,100076.84
2022-09-12T08:37:01.908Z,100072.44
2022-09-12T08:39:30.449Z,100077.81
2022-09-12T08:42:03.249Z,100070.78
2022-09-12T08:45:00.719Z,100073.50
2022-09-12T08:47:32.921Z,100065.53
2022-09-12T08:50:08.078Z,100072.56
2022-09-12T08:52:44.428Z,100073.25
2022-09-12T08:55:29.160Z,100079.34
2022-09-12T08:57:57.569Z,100089.97
2022-09-12T09:00:31.919Z,100086.38
2022-09-12T09:03:15.968Z,100086.16
2022-09-12T09:05:51.770Z,100086.16
2022-09-12T09:08:37.130Z,100094.84
2022-09-12T09:11:17.019Z,100100.94
2022-09-12T09:14:16.599Z,100104.41
2022-09-12T09:16:50.099Z,100100.22
2022-09-12T09:19:23.129Z,100094.97
2022-09-12T09:21:58.898Z,100106.31
2022-09-12T09:24:35.119Z,100109.66
2022-09-12T09:27:23.576Z,100095.69
2022-09-12T09:29:57.628Z,100100.00
2022-09-12T09:32:32.839Z,100100.00
2022-09-12T09:35:02.188Z,100103.31
2022-09-12T09:37:39.138Z,100104.19
2022-09-12T09:40:16.706Z,100113.81
2022-09-12T09:42:54.191Z,100112.88
2022-09-12T09:45:25.588Z,100112.03
2022-09-12T09:47:59.099Z,100116.19
2022-09-12T09:50:27.533Z,100120.63
2022-09-12T09:52:59.148Z,100120.53
2022-09-12T09:55:32.678Z,100118.72
2022-09-12T09:58:01.138Z,100121.34
2022-09-12T10:00:32.222Z,100124.69
2022-09-12T10:03:26.270Z,100123.75
2022-09-12T10:05:57.261Z,100127.94
2022-09-12T10:08:28.299Z,100126.97
2022-09-12T10:11:03.236Z,100126.00
2022-09-12T10:13:39.429Z,100128.63
2022-09-12T10:16:20.199Z,100130.31
2022-09-12T10:18:52.786Z,100131.16
2022-09-12T10:21:33.928Z,100127.47
2022-09-12T10:24:17.249Z,100132.59
2022-09-12T10:26:56.804Z,100141.06
2022-09-12T10:29:29.088Z,100137.50
2022-09-12T10:32:00.378Z,100136.53
2022-09-12T10:34:33.748Z,100140.22
2022-09-12T10:37:05.891Z,100149.06
2022-09-12T10:39:36.368Z,100146.53
2022-09-12T10:42:05.654Z,100144.88
2022-09-12T10:44:36.501Z,100144.75
2022-09-12T10:47:24.496Z,100142.97
2022-09-12T10:49:54.839Z,100153.56
2022-09-12T10:52:26.039Z,100151.09
2022-09-12T10:54:55.309Z,100158.94
2022-09-12T10:57:52.589Z,100154.63
2022-09-12T11:00:28.030Z,100152.97
2022-09-12T11:03:08.007Z,100153.94
2022-09-12T11:05:55.071Z,100159.28
2022-09-12T11:08:59.633Z,100162.72
2022-09-12T11:11:50.448Z,100154.75
2022-09-12T11:14:34.760Z,100155.59
2022-09-12T11:17:13.773Z,100152.84
2022-09-12T11:20:15.949Z,100154.53
2022-09-12T11:23:11.259Z,100155.22
2022-09-12T11:25:47.234Z,100155.88
2022-09-12T11:28:32.454Z,100153.00
2022-09-12T11:31:19.106Z,100158.25
2022-09-12T11:33:49.362Z,100154.06
2022-09-12T11:36:28.876Z,100166.97
2022-09-12T11:39:04.954Z,100153.00
2022-09-12T11:41:37.025Z,100163.50
2022-09-12T11:44:15.573Z,100167.06
2022-09-12T11:46:48.767Z,100167.19
2022-09-12T11:49:28.516Z,100165.50
2022-09-12T11:52:03.274Z,100163.75
2022-09-12T11:54:38.079Z,100169.09
2022-09-12T11:57:16.979Z,100171.72
2022-09-12T11:59:51.724Z,100164.66
2022-09-12T12:02:27.994Z,100166.47
2022-09-12T12:05:17.060Z,100163.00
2022-09-12T12:07:54.153Z,100169.91
2022-09-12T12:10:33.534Z,100161.22
2022-09-12T12:13:04.597Z,100170.88
2022-09-12T12:15:33.484Z,100168.13
2022-09-12T12:18:04.428Z,100162.88
2022-09-12T12:20:33.239Z,100173.38
2022-09-12T12:23:02.415Z,100185.56
2022-09-12T12:25:52.144Z,100189.03
2022-09-12T12:28:59.544Z,100189.84
2022-09-12T12:31:28.272Z,100182.59
2022-09-12T12:34:03.765Z,100180.69
2022-09-12T12:36:43.506Z,100188.56
2022-09-12T12:39:46.349Z,100184.97
2022-09-12T12:43:04.911Z,100192.84
2022-09-12T12:46:01.989Z,100203.34
2022-09-12T12:48:47.664Z,100196.22
2022-09-12T12:51:51.065Z,100188.97
2022-09-12T12:54:53.934Z,100186.44
2022-09-12T12:57:50.254Z,100190.03
2022-09-12T13:00:35.374Z,100191.91
2022-09-12T13:03:12.314Z,100190.97
2022-09-12T13:05:43.605Z,100187.41
2022-09-12T13:08:13.575Z,100193.47
2022-09-12T13:10:51.964Z,100187.16
2022-09-12T13:13:26.984Z,100180.97
2022-09-12T13:15:55.826Z,100174.56
2022-09-12T13:18:29.324Z,100175.97
2022-09-12T13:21:09.534Z,100172.41
2022-09-12T13:23:38.334Z,100175.97
2022-09-12T13:26:13.554Z,100183.03
2022-09-12T13:28:42.217Z,100191.72
2022-09-12T13:31:19.562Z,100192.69
2022-09-12T13:33:52.535Z,100190.75
2022-09-12T13:36:53.004Z,100192.22
2022-09-12T13:39:24.534Z,100192.22
2022-09-12T13:42:09.554Z,100194.00
2022-09-12T13:44:45.034Z,100194.00
2022-09-12T13:47:17.844Z,100196.50
2022-09-12T13:49:48.130Z,100189.47
2022-09-12T13:52:20.424Z,100191.25
2022-09-12T13:54:51.474Z,100187.81
2022-09-12T13:57:34.904Z,100186.00
2022-09-12T14:00:09.224Z,100184.34
2022-09-12T14:02:38.513Z,100186.97
2022-09-12T14:05:21.523Z,100190.44
2022-09-12T14:07:56.554Z,100192.09
2022-09-12T14:10:32.059Z,100188.75
2022-09-12T14:13:02.794Z,100190.44
2022-09-12T14:15:33.883Z,100186.97
2022-09-12T14:18:04.139Z,100182.56
2022-09-12T14:20:38.795Z,100190.44
2022-09-12T14:23:20.364Z,100188.75
2022-09-12T14:25:49.704Z,100193.16
2022-09-12T14:28:23.604Z,100194.00
2022-09-12T14:31:03.935Z,100196.75
2022-09-12T14:33:36.204Z,100199.38
2022-09-12T14:36:19.905Z,100202.00
2022-09-12T14:38:52.354Z,100206.28
2022-09-12T14:41:27.234Z,100202.72
2022-09-12T14:43:59.713Z,100194.84
2022-09-12T14:46:33.151Z,100195.69
2022-09-12T14:49:16.064Z,100196.50
2022-09-12T14:51:54.484Z,100193.16
2022-09-12T14:54:39.744Z,100203.66
2022-09-12T14:57:19.724Z,100193.06
2022-09-12T14:59:48.307Z,100198.19
2022-09-12T15:02:26.278Z,100192.94
2022-09-12T15:04:56.623Z,100188.63
2022-09-12T15:07:34.598Z,100192.09
2022-09-12T15:10:05.496Z,100191.25
2022-09-12T15:12:34.024Z,100189.47
2022-09-12T15:15:14.430Z,100188.63
2022-09-12T15:17:43.273Z,100184.13
2022-09-12T15:20:12.144Z,100176.94
2022-09-12T15:23:25.463Z,100183.88
2022-09-12T15:26:00.865Z,100177.53
2022-09-12T15:28:29.964Z,100182.09
2022-09-12T15:30:59.568Z,100189.25
2022-09-12T15:33:28.474Z,100185.66
2022-09-12T15:35:57.224Z,100175.16
2022-09-12T15:38:27.294Z,100176.94
2022-09-12T15:40:56.984Z,100182.31
2022-09-12T15:43:26.474Z,100184.13
2022-09-12T15:45:55.177Z,100180.63
2022-09-12T15:48:23.953Z,100181.50
2022-09-12T15:50:53.163Z,100180.75
2022-09-12T15:53:22.376Z,100186.25
2022-09-12T15:55:52.628Z,100189.59
2022-09-12T15:58:21.714Z,100186.97
2022-09-12T16:00:51.199Z,100196.50
2022-09-12T16:03:23.786Z,100193.06
2022-09-12T16:05:55.334Z,100188.75
2022-09-12T16:08:24.186Z,100196.75
2022-09-12T16:10:58.804Z,100201.88
2022-09-12T16:13:27.534Z,100201.88
2022-09-12T16:15:59.232Z,100201.88
2022-09-12T16:18:28.225Z,100201.03
2022-09-12T16:20:57.753Z,100204.50
2022-09-12T16:23:26.635Z,100199.38
2022-09-12T16:26:01.887Z,100203.88
2022-09-12T16:28:30.964Z,100203.88
2022-09-12T16:31:01.679Z,100199.38
2022-09-12T16:33:31.354Z,100198.53
2022-09-12T16:36:04.264Z,100200.34
2022-09-12T16:38:34.025Z,100201.25
2022-09-12T16:41:05.125Z,100196.97
2022-09-12T16:43:34.833Z,100203.19
2022-09-12T16:46:04.848Z,100206.75
2022-09-12T16:48:33.873Z,100209.38
2022-09-12T16:51:03.954Z,100210.69
2022-09-12T16:53:33.289Z,100206.28
2022-09-12T16:56:01.879Z,100217.69
2022-09-12T16:58:38.484Z,100211.53
2022-09-12T17:01:12.688Z,100214.25
2022-09-12T17:03:42.203Z,100217.84
2022-09-12T17:06:13.165Z,100230.00
2022-09-12T17:08:44.674Z,100229.28
2022-09-12T17:11:15.744Z,100228.66
2022-09-12T17:14:06.213Z,100232.16
2022-09-12T17:16:36.229Z,100232.22
2022-09-12T17:19:05.439Z,100231.19
2022-09-12T17:22:01.174Z,100242.50
2022-09-12T17:24:40.899Z,100239.88
2022-09-12T17:27:20.724Z,100242.41
2022-09-12T17:29:55.257Z,100247.75
2022-09-12T17:32:27.174Z,100247.66
2022-09-12T17:34:56.114Z,100250.38
2022-09-12T17:37:25.104Z,100246.81
2022-09-12T17:39:53.985Z,100252.03
2022-09-12T17:42:24.544Z,100260.66
2022-09-12T17:44:55.603Z,100266.13
2022-09-12T17:47:24.153Z,100265.41
2022-09-12T17:49:58.621Z,100268.03
2022-09-12T17:52:33.925Z,100271.78
2022-09-12T17:55:04.464Z,100270.97
2022-09-12T17:57:33.379Z,100274.41
2022-09-12T18:00:03.674Z,100277.28
2022-09-12T18:02:33.136Z,100275.38
2022-09-12T18:05:05.463Z,100278.22
2022-09-12T18:07:35.903Z,100279.41
2022-09-12T18:10:05.514Z,100287.59
2022-09-12T18:12:37.023Z,100301.56
2022-09-12T18:15:08.103Z,100299.75
2022-09-12T18:17:36.675Z,100305.75
2022-09-12T18:20:06.604Z,100305.88
2022-09-12T18:22:38.069Z,100304.19
2022-09-12T18:25:07.305Z,100305.88
2022-09-12T18:27:35.859Z,100303.47
2022-09-12T18:30:20.454Z,100309.66
2022-09-12T18:32:52.864Z,100310.69
2022-09-12T18:35:21.484Z,100306.75
2022-09-12T18:37:50.074Z,100317.25
2022-09-12T18:40:18.781Z,100317.13
2022-09-12T18:42:47.374Z,100318.69
2022-09-12T18:45:16.085Z,100323.31
2022-09-12T18:47:44.584Z,100322.94
2022-09-12T18:50:14.649Z,100319.47
2022-09-12T18:52:43.215Z,100328.19
2022-09-12T18:55:12.149Z,100326.59
2022-09-12T18:57:42.325Z,100333.50
2022-09-12T19:00:12.727Z,100323.97
2022-09-12T19:02:41.485Z,100324.19
2022-09-12T19:05:13.064Z,100321.56
2022-09-12T19:07:43.003Z,100326.69
2022-09-12T19:10:12.428Z,100334.69
2022-09-12T19:12:41.024Z,100332.06
2022-09-12T19:15:11.014Z,100339.19
2022-09-12T19:17:39.508Z,100345.41
2022-09-12T19:20:08.524Z,100349.69
2022-09-12T19:22:37.031Z,100354.22
2022-09-12T19:25:08.004Z,100359.47
2022-09-12T19:27:36.863Z,100359.47
2022-09-12T19:30:05.818Z,100353.38
2022-09-12T19:32:34.284Z,100354.31
2022-09-12T19:35:02.704Z,100357.78
2022-09-12T19:37:31.414Z,100359.69
2022-09-12T19:40:02.288Z,100357.28
2022-09-12T19:42:32.834Z,100367.03
2022-09-12T19:45:01.354Z,100370.38
2022-09-12T19:47:29.764Z,100374.81
2022-09-12T19:49:58.084Z,100379.19
2022-09-12T19:52:26.624Z,100381.94
2022-09-12T19:54:55.064Z,100385.50
2022-09-12T19:57:23.523Z,100391.78
2022-09-12T19:59:53.434Z,100388.22
2022-09-12T20:02:22.120Z,100384.00
2022-09-12T20:04:51.024Z,100385.72
2022-09-12T20:07:19.537Z,100387.38
2022-09-12T20:09:48.974Z,100387.59
2022-09-12T20:12:17.505Z,100386.13
2022-09-12T20:14:46.084Z,100381.59
2022-09-12T20:17:16.124Z,100381.72
2022-09-12T20:20:00.875Z,100380.06
2022-09-12T20:22:38.053Z,100381.09
2022-09-12T20:25:22.934Z,100368.84
2022-09-12T20:27:58.138Z,100383.59
2022-09-12T20:30:38.764Z,100383.59
2022-09-12T20:33:16.734Z,100388.00
2022-09-12T20:35:45.254Z,100385.94
2022-09-12T20:38:13.685Z,100391.78
2022-09-12T20:40:49.604Z,100389.88
2022-09-12T20:43:18.018Z,100384.75
2022-09-12T20:45:46.735Z,100387.81
2022-09-12T20:48:16.664Z,100393.88
2022-09-12T20:50:45.263Z,100393.03
2022-09-12T20:53:13.774Z,100394.72
2022-09-12T20:55:50.134Z,100394.94
2022-09-12T20:58:19.485Z,100398.50
2022-09-12T21:00:48.345Z,100399.03
2022-09-12T21:03:19.654Z,100409.41
2022-09-12T21:05:48.364Z,100406.28
2022-09-12T21:08:16.875Z,100407.72
2022-09-12T21:10:48.324Z,100390.53
2022-09-12T21:13:17.644Z,100390.53
2022-09-12T21:15:47.424Z,100396.94
2022-09-12T21:18:19.564Z,100397.66
2022-09-12T21:20:53.964Z,100406.69
2022-09-12T21:23:23.314Z,100414.44
2022-09-12T21:25:52.572Z,100412.34
2022-09-12T21:28:25.803Z,100419.69
2022-09-12T21:30:55.017Z,100413.50
2022-09-12T21:33:25.414Z,100417.28
2022-09-12T21:35:57.170Z,100414.88
2022-09-12T21:38:27.195Z,100423.13
2022-09-12T21:41:24.279Z,100422.44
2022-09-12T21:44:01.424Z,100431.00
2022-09-12T21:47:01.037Z,100436.03
2022-09-12T21:50:02.174Z,100441.69
2022-09-12T21:52:39.404Z,100442.09
2022-09-12T21:55:12.934Z,100440.19
2022-09-12T21:57:49.514Z,100437.91
2022-09-12T22:00:19.144Z,100444.22
2022-09-12T22:02:49.830Z,100445.06
2022-09-12T22:05:22.744Z,100445.22
2022-09-12T22:07:54.531Z,100449.97
2022-09-12T22:10:26.975Z,100454.72
2022-09-12T22:12:56.389Z,100463.41
2022-09-12T22:15:41.646Z,100455.53
2022-09-12T22:18:12.501Z,100454.28
2022-09-12T22:20:44.335Z,100460.78
2022-09-12T22:23:30.930Z,100452.91
2022-09-12T22:26:00.621Z,100451.41
2022-09-12T22:28:32.323Z,100459.16
2022-09-12T22:31:02.302Z,100454.50
2022-09-12T22:33:37.674Z,100451.88
2022-09-12T22:36:09.033Z,100464.97
2022-09-12T22:38:41.905Z,100467.13
2022-09-12T22:41:17.284Z,100465.59
2022-09-12T22:43:48.214Z,100471.97
2022-09-12T22:46:18.274Z,100473.03
2022-09-12T22:48:48.427Z,100473.31
2022-09-12T22:51:19.069Z,100464.06
2022-09-12T22:53:52.255Z,100469.50
2022-09-12T22:56:22.024Z,100471.28
2022-09-12T22:58:51.390Z,100467.84
2022-09-12T23:01:20.644Z,100472.44
2022-09-12T23:03:50.105Z,100475.25
2022-09-12T23:06:21.789Z,100472.63
2022-09-12T23:08:50.459Z,100477.69
2022-09-12T23:11:21.737Z,100483.94
2022-09-12T23:13:56.319Z,100488.69
2022-09-12T23:16:28.580Z,100477.25
2022-09-12T23:18:57.253Z,100473.88
2022-09-12T23:21:27.285Z,100473.88
2022-09-12T23:23:59.314Z,100473.16
2022-09-12T23:26:28.734Z,100480.63
2022-09-12T23:28:59.318Z,100476.28
2022-09-12T23:31:30.445Z,100482.28
2022-09-12T23:34:04.777Z,100481.00
2022-09-12T23:36:35.373Z,100482.13
2022-09-12T23:39:04.744Z,100489.47
2022-09-12T23:41:33.906Z,100482.00
2022-09-12T23:44:03.614Z,100485.25
2022-09-12T23:46:32.244Z,100484.44
2022-09-12T23:49:00.738Z,100486.28
2022-09-12T23:51:29.145Z,100479.59
2022-09-12T23:53:59.204Z,100483.78
2022-09-12T23:56:27.684Z,100490.56
2022-09-12T23:58:56.084Z,100493.34
